Aniwa, Wisconsin
Current Conditions -  °F | °C
As of 10:15 PM on Thursday 20 Nov 2014 (Local Time) from KAIG Reporting Station
Clear Clear  
Wind Chill: -11°   Ceiling: Unl
Heat Index:   Visibility: 10mi
Dew Point: -3°   Wind: 8mph
Humidity: 77%   Direction: 280°W
Pressure: 30.14"   Gusts: NA
Location:  45.01°N, 89.21°W
Report Text: KAIG 210415Z AUTO 28007KT 10SM CLR M16/M20 A3014 RMK AO2 T11641196
Loading
Personal Weather Stations






























Interactive Weather Map New forecast layout! Learn more

10-Day Weather Forecast

Advertisements
Track Severe Weather on mobile